.
WxDataArchive / Data Records for 2010-11-30
2010-11-29 November 2010 2010-12-01

Data Records for Tuesday, 30 November 2010

Time	Temp	Chill	HIndex	Humid	Dewpt	 Wind 	HiWind	WindDir	Rain 	Barom 
-----	----	-----	------	-----	-----	------	------	-------	-----	----- 
00:00	43.9	43.9	43.9	88	40.6	2	5	112	0.00	29.808 
00:05	43.9	43.9	43.9	89	40.9	2	7	90	0.01	29.808 
00:10	43.9	43.9	43.9	89	40.9	1	4	90	0.00	29.808 
00:15	44.1	44.1	44.1	89	41.1	2	5	90	0.04	29.792 
00:20	44.1	44.1	44.1	90	41.4	2	4	90	0.01	29.792 
00:25	44.3	44.3	44.3	91	41.8	2	4	112	0.02	29.792 
00:30	44.5	44.5	44.5	91	42.0	2	5	90	0.00	29.768 
00:35	44.8	44.8	44.8	92	42.6	3	6	90	0.01	29.768 
00:40	45.1	45.1	45.1	92	42.9	2	4	112	0.01	29.768 
00:45	45.2	45.2	45.2	92	43.0	1	5	112	0.01	29.770 
00:50	45.5	45.5	45.5	92	43.3	1	3	112	0.01	29.770 
00:55	46.0	46.0	46.0	93	44.1	1	4	68	0.00	29.770 
01:00	46.7	46.7	46.7	93	44.8	2	6	90	0.01	29.767 
01:05	47.1	47.1	47.1	94	45.5	1	5	90	0.00	29.767 
01:10	47.6	47.6	47.6	94	46.0	2	9	90	0.01	29.767 
01:15	48.0	48.0	48.0	94	46.4	3	6	90	0.00	29.754 
01:20	48.3	48.3	48.3	94	46.7	2	4	90	0.00	29.754 
01:25	48.5	48.5	48.5	94	46.9	3	7	90	0.01	29.754 
01:30	48.8	48.8	48.8	94	47.1	2	7	68	0.00	29.753 
01:35	49.1	49.1	49.1	94	47.4	3	7	68	0.00	29.753 
01:40	49.4	49.4	49.4	94	47.7	3	9	90	0.01	29.753 
01:45	49.6	49.6	49.6	94	47.9	3	9	112	0.00	29.750 
01:50	49.8	48.6	49.8	94	48.1	4	9	90	0.00	29.750 
01:55	49.9	49.9	49.9	94	48.2	3	7	90	0.01	29.750 
02:00	50.1	50.1	50.1	94	48.4	3	11	68	0.00	29.750 
02:05	50.2	50.2	50.2	94	48.5	4	10	90	0.01	29.750 
02:10	50.4	50.4	50.4	94	48.7	3	9	90	0.01	29.750 
02:15	50.4	50.4	50.4	94	48.7	4	10	90	0.01	29.750 
02:20	50.5	50.5	50.5	94	48.8	3	10	90	0.00	29.750 
02:25	50.5	50.5	50.5	94	48.8	2	7	112	0.01	29.750 
02:30	50.5	50.5	50.5	94	48.8	2	9	112	0.01	29.744 
02:35	50.5	50.5	50.5	94	48.8	2	6	90	0.01	29.744 
02:40	50.5	50.5	50.5	94	48.8	2	5	112	0.00	29.744 
02:45	50.5	50.5	50.5	94	48.8	2	5	90	0.00	29.746 
02:50	50.5	50.5	50.5	94	48.8	1	5	112	0.01	29.746 
02:55	50.5	50.5	50.5	94	48.8	1	6	90	0.00	29.746 
03:00	50.7	50.7	50.7	94	49.0	2	6	112	0.00	29.743 
03:05	50.7	50.7	50.7	94	49.0	1	3	22	0.00	29.743 
03:10	50.7	50.7	50.7	94	49.0	1	3	45	0.00	29.743 
03:15	50.7	50.7	50.7	94	49.0	1	5	90	0.00	29.737 
03:20	50.7	50.7	50.7	94	49.0	2	4	90	0.00	29.737 
03:25	50.7	50.7	50.7	94	49.0	1	4	90	0.00	29.737 
03:30	50.8	50.8	50.8	94	49.1	3	10	112	0.01	29.732 
03:35	51.0	51.0	51.0	94	49.3	3	7	112	0.00	29.732 
03:40	51.0	51.0	51.0	94	49.3	3	7	90	0.01	29.732 
03:45	51.0	51.0	51.0	94	49.3	2	6	90	0.00	29.717 
03:50	51.1	51.1	51.1	94	49.4	3	6	112	0.00	29.717 
03:55	51.1	51.1	51.1	94	49.4	4	14	90	0.00	29.717 
04:00	51.1	51.1	51.1	94	49.4	2	6	112	0.00	29.721 
04:05	51.1	51.1	51.1	94	49.4	3	7	112	0.01	29.721 
04:10	51.1	51.1	51.1	94	49.4	3	7	90	0.00	29.721 
04:15	51.1	51.1	51.1	94	49.4	4	12	90	0.01	29.705 
04:20	51.0	51.0	51.0	94	49.3	4	7	90	0.00	29.705 
04:25	51.0	51.0	51.0	94	49.3	4	10	90	0.01	29.705 
04:30	51.0	51.0	51.0	94	49.3	3	7	112	0.00	29.663 
04:35	51.0	51.0	51.0	94	49.3	3	7	90	0.00	29.663 
04:40	51.0	51.0	51.0	95	49.6	2	6	112	0.00	29.663 
04:45	51.1	51.1	51.1	95	49.7	3	10	112	0.00	29.678 
04:50	51.1	51.1	51.1	95	49.7	3	9	90	0.00	29.678 
04:55	51.1	51.1	51.1	95	49.7	3	6	90	0.00	29.678 
05:00	51.1	51.1	51.1	94	49.4	2	7	90	0.00	29.672 
05:05	51.1	51.1	51.1	95	49.7	2	6	90	0.00	29.672 
05:10	51.1	51.1	51.1	94	49.4	2	7	90	0.00	29.672 
05:15	51.3	51.3	51.3	94	49.6	2	6	90	0.00	29.671 
05:20	51.3	51.3	51.3	94	49.6	2	5	112	0.00	29.671 
05:25	51.3	51.3	51.3	94	49.6	1	5	90	0.00	29.671 
05:30	51.4	51.4	51.4	95	50.0	2	4	90	0.00	29.692 
05:35	51.4	51.4	51.4	94	49.7	2	4	90	0.00	29.692 
05:40	51.6	51.6	51.6	94	49.9	2	5	112	0.00	29.692 
05:45	51.6	51.6	51.6	94	49.9	2	5	90	0.00	29.625 
05:50	51.6	51.6	51.6	94	49.9	1	4	112	0.00	29.625 
05:55	51.6	51.6	51.6	94	49.9	2	5	90	0.00	29.625 
06:00	51.4	51.4	51.4	94	49.7	1	3	135	0.00	29.649 
06:05	51.4	51.4	51.4	94	49.7	2	4	112	0.00	29.649 
06:10	51.4	51.4	51.4	94	49.7	2	5	112	0.00	29.649 
06:15	51.6	51.6	51.6	94	49.9	1	3	112	0.00	29.659 
06:20	51.6	51.6	51.6	94	49.9	1	4	112	0.00	29.659 
06:25	51.6	51.6	51.6	94	49.9	1	5	112	0.00	29.659 
06:30	51.7	51.7	51.7	94	50.0	2	4	112	0.00	29.657 
06:35	51.7	51.7	51.7	94	50.0	1	5	112	0.00	29.657 
06:40	51.7	51.7	51.7	94	50.0	2	5	112	0.00	29.657 
06:45	51.7	51.7	51.7	94	50.0	3	6	90	0.00	29.659 
06:50	52.0	52.0	52.0	94	50.3	3	10	90	0.00	29.659 
06:55	52.2	52.2	52.2	94	50.5	3	6	112	0.00	29.659 
07:00	52.3	52.3	52.3	93	50.3	2	6	68	0.00	29.673 
07:05	52.5	52.5	52.5	93	50.5	3	7	90	0.00	29.673 
07:10	52.6	52.6	52.6	93	50.6	2	9	90	0.00	29.673 
07:15	52.6	52.6	52.6	93	50.6	2	7	90	0.00	29.647 
07:20	52.6	52.6	52.6	93	50.6	1	5	0	0.00	29.647 
07:25	52.6	52.6	52.6	93	50.6	2	5	90	0.00	29.647 
07:30	52.8	52.8	52.8	93	50.8	2	6	90	0.00	29.663 
07:35	52.8	52.8	52.8	93	50.8	2	6	90	0.00	29.663 
07:40	52.8	52.8	52.8	93	50.8	1	5	68	0.00	29.663 
07:45	52.9	52.9	52.9	93	50.9	2	6	90	0.00	29.691 
07:50	53.1	53.1	53.1	93	51.1	2	9	90	0.00	29.691 
07:55	53.2	53.2	53.2	93	51.2	1	5	292	0.00	29.691 
08:00	53.3	53.3	53.3	93	51.3	2	4	248	0.00	29.712 
08:05	53.3	53.3	53.3	93	51.3	2	7	68	0.00	29.712 
08:10	53.5	53.5	53.5	93	51.5	2	6	135	0.00	29.712 
08:15	53.6	53.6	53.6	93	51.6	1	5	90	0.00	29.679 
08:20	53.8	53.8	53.8	93	51.8	2	5	225	0.00	29.679 
08:25	53.9	53.9	53.9	93	51.9	1	6	112	0.00	29.679 
08:30	53.9	53.9	53.9	93	51.9	1	3	112	0.00	29.637 
08:35	54.1	54.1	54.1	93	52.1	1	5	68	0.00	29.637 
08:40	54.1	54.1	54.1	93	52.1	1	7	68	0.00	29.637 
08:45	54.2	54.2	54.2	93	52.2	2	5	248	0.00	29.638 
08:50	54.4	54.4	54.4	92	52.1	2	6	248	0.00	29.638 
08:55	54.5	54.5	54.5	92	52.2	2	6	248	0.00	29.638 
09:00	54.7	54.7	54.7	92	52.4	2	6	248	0.00	29.667 
09:05	54.7	54.7	54.7	92	52.4	2	6	248	0.00	29.667 
09:10	54.8	54.8	54.8	92	52.5	1	7	248	0.00	29.667 
09:15	54.8	54.8	54.8	92	52.5	2	10	248	0.00	29.673 
09:20	54.8	54.8	54.8	92	52.5	1	5	270	0.00	29.673 
09:25	55.0	55.0	55.0	91	52.4	2	7	270	0.00	29.673 
09:30	55.1	55.1	55.1	91	52.5	2	6	248	0.00	29.704 
09:35	55.1	55.1	55.1	91	52.5	2	6	248	0.00	29.704 
09:40	55.1	55.1	55.1	90	52.2	2	6	248	0.00	29.704 
09:45	54.8	54.8	54.8	89	51.6	4	7	248	0.00	29.710 
09:50	53.5	53.5	53.5	86	49.4	3	10	270	0.00	29.710 
09:55	52.8	52.8	52.8	84	48.1	3	7	248	0.00	29.710 
10:00	52.2	52.2	52.2	82	46.9	4	7	270	0.00	29.723 
10:05	51.9	51.9	51.9	81	46.3	3	9	248	0.00	29.723 
10:10	51.7	51.7	51.7	81	46.1	2	6	248	0.00	29.723 
10:15	51.6	51.6	51.6	82	46.3	3	7	248	0.00	29.727 
10:20	51.4	51.4	51.4	82	46.1	2	6	248	0.00	29.727 
10:25	51.3	51.3	51.3	82	46.0	2	9	270	0.00	29.727 
10:30	51.3	51.3	51.3	83	46.3	2	5	248	0.00	29.719 
10:35	51.3	51.3	51.3	83	46.3	2	6	248	0.00	29.719 
10:40	51.3	51.3	51.3	83	46.3	2	9	248	0.00	29.719 
10:45	51.4	51.4	51.4	83	46.4	1	4	248	0.00	29.679 
10:50	51.4	51.4	51.4	83	46.4	1	6	248	0.00	29.679 
10:55	51.6	51.6	51.6	84	46.9	1	3	248	0.00	29.679 
11:00	51.6	51.6	51.6	83	46.6	1	4	248	0.00	29.695 
11:05	51.4	51.4	51.4	83	46.4	2	7	248	0.00	29.695 
11:10	51.6	51.6	51.6	84	46.9	1	4	248	0.00	29.695 
11:15	51.9	51.9	51.9	84	47.2	1	3	248	0.00	29.692 
11:20	52.2	52.2	52.2	83	47.2	1	5	270	0.00	29.692 
11:25	52.2	52.2	52.2	83	47.2	1	4	270	0.00	29.692 
11:30	52.0	52.0	52.0	83	47.0	2	5	248	0.00	29.687 
11:35	51.9	51.9	51.9	83	46.9	1	5	225	0.00	29.687 
11:40	51.7	51.7	51.7	83	46.7	2	4	248	0.00	29.687 
11:45	51.6	51.6	51.6	84	46.9	1	5	225	0.00	29.681 
11:50	51.6	51.6	51.6	84	46.9	1	5	270	0.00	29.681 
11:55	51.6	51.6	51.6	84	46.9	2	6	248	0.00	29.681 
12:00	51.6	51.6	51.6	84	46.9	2	6	248	0.00	29.691 
12:05	51.7	51.7	51.7	84	47.0	2	10	270	0.00	29.691 
12:10	51.9	51.9	51.9	84	47.2	2	12	270	0.00	29.691 
12:15	52.2	52.2	52.2	84	47.5	2	6	248	0.00	29.663 
12:20	52.2	52.2	52.2	83	47.2	3	10	248	0.00	29.663 
12:25	52.2	52.2	52.2	83	47.2	3	8	270	0.00	29.663 
12:30	48.8	46.8	48.8	77	41.9	5	10	270	0.00	29.691 
12:35	45.4	42.8	45.4	80	39.6	5	12	270	0.00	29.691 
12:40	43.2	40.2	43.2	82	38.1	5	10	270	0.00	29.691 
12:45	42.2	39.9	42.2	84	37.7	4	7	270	0.00	29.702 
12:50	41.6	38.4	41.6	86	37.7	5	9	270	0.00	29.702 
12:55	41.1	37.8	41.1	87	37.5	5	9	270	0.00	29.702 
13:00	40.8	40.8	40.8	88	37.5	3	7	270	0.00	29.709 
13:05	40.6	38.0	40.6	88	37.3	4	11	270	0.00	29.709 
13:10	40.2	37.5	40.2	89	37.2	4	11	270	0.00	29.709 
13:15	39.9	37.2	39.9	89	36.9	4	13	270	0.00	29.711 
13:20	39.8	39.8	39.8	89	36.8	3	6	270	0.00	29.711 
13:25	39.8	39.8	39.8	89	36.8	3	7	270	0.00	29.711 
13:30	39.6	36.9	39.6	89	36.6	4	9	248	0.00	29.702 
13:35	39.6	39.6	39.6	88	36.3	3	6	248	0.00	29.702 
13:40	39.8	39.8	39.8	87	36.3	3	7	248	0.00	29.702 
13:45	39.8	37.1	39.8	86	36.0	4	9	248	0.00	29.701 
13:50	39.8	36.2	39.8	83	35.1	5	11	270	0.00	29.701 
13:55	39.8	36.2	39.8	81	34.5	5	12	248	0.00	29.701 
14:00	39.6	36.0	39.6	80	33.9	5	11	248	0.00	29.716 
14:05	39.6	36.0	39.6	79	33.6	5	11	248	0.00	29.716 
14:10	39.6	39.6	39.6	79	33.6	3	7	248	0.00	29.716 
14:15	39.6	39.6	39.6	80	33.9	3	6	248	0.00	29.716 
14:20	39.5	36.7	39.5	81	34.2	4	10	270	0.00	29.716 
14:25	39.3	39.3	39.3	81	34.0	3	11	270	0.00	29.716 
14:30	39.3	39.3	39.3	81	34.0	3	4	270	0.00	29.726 
14:35	39.2	39.2	39.2	80	33.6	3	7	270	0.00	29.726 
14:40	39.1	39.1	39.1	80	33.5	3	7	270	0.00	29.726 
14:45	38.9	38.9	38.9	80	33.3	3	7	270	0.00	29.719 
14:50	38.9	38.9	38.9	80	33.3	2	5	270	0.00	29.719 
14:55	38.8	38.8	38.8	81	33.5	2	4	248	0.00	29.719 
15:00	38.6	38.6	38.6	81	33.3	3	9	270	0.00	29.722 
15:05	38.3	38.3	38.3	81	33.0	3	6	270	0.00	29.722 
15:10	38.3	38.3	38.3	81	33.0	3	10	270	0.00	29.722 
15:15	38.0	35.0	38.0	81	32.7	4	10	270	0.00	29.730 
15:20	37.9	34.9	37.9	81	32.6	4	11	248	0.00	29.730 
15:25	37.9	37.9	37.9	81	32.6	2	5	248	0.00	29.730 
15:30	37.8	37.8	37.8	81	32.5	3	10	248	0.00	29.732 
15:35	37.8	37.8	37.8	82	32.8	2	4	248	0.00	29.732 
15:40	37.6	37.6	37.6	82	32.6	3	6	248	0.00	29.732 
15:45	37.0	33.9	37.0	80	31.4	4	13	270	0.00	29.730 
15:50	36.8	33.6	36.8	79	30.9	4	11	270	0.00	29.730 
15:55	36.6	36.6	36.6	80	31.0	3	6	270	0.00	29.730 
16:00	36.5	33.3	36.5	80	30.9	4	7	270	0.00	29.734 
16:05	36.2	36.2	36.2	81	30.9	3	7	270	0.00	29.734 
16:10	36.0	32.7	36.0	81	30.7	4	10	248	0.00	29.734 
16:15	35.9	35.9	35.9	81	30.6	3	6	248	0.00	29.750 
16:20	35.6	32.2	35.6	81	30.4	4	7	270	0.00	29.750 
16:25	35.5	35.5	35.5	81	30.3	3	10	270	0.00	29.750 
16:30	35.5	35.5	35.5	82	30.6	2	6	248	0.00	29.761 
16:35	35.2	35.2	35.2	81	30.0	3	7	248	0.00	29.761 
16:40	35.2	35.2	35.2	81	30.0	2	8	248	0.00	29.761 
16:45	35.0	35.0	35.0	80	29.5	3	9	248	0.00	29.768 
16:50	35.0	35.0	35.0	79	29.2	3	9	248	0.00	29.768 
16:55	34.9	31.4	34.9	79	29.1	4	10	270	0.00	29.768 
17:00	34.7	34.7	34.7	80	29.2	3	11	248	0.00	29.752 
17:05	34.6	34.6	34.6	80	29.1	3	11	248	0.00	29.752 
17:10	34.6	34.6	34.6	81	29.4	3	6	270	0.00	29.752 
17:15	34.6	34.6	34.6	81	29.4	2	7	248	0.00	29.770 
17:20	34.6	34.6	34.6	81	29.4	2	6	248	0.00	29.770 
17:25	34.6	34.6	34.6	81	29.4	3	7	248	0.00	29.770 
17:30	34.4	30.8	34.4	81	29.2	4	10	270	0.00	29.782 
17:35	34.4	34.4	34.4	82	29.5	3	6	292	0.00	29.782 
17:40	34.3	34.3	34.3	82	29.4	3	9	270	0.00	29.782 
17:45	34.1	34.1	34.1	82	29.2	3	10	248	0.00	29.787 
17:50	34.1	34.1	34.1	81	28.9	3	10	270	0.00	29.787 
17:55	33.8	30.2	33.8	81	28.6	4	14	270	0.00	29.787 
18:00	33.7	33.7	33.7	80	28.2	3	7	270	0.00	29.779 
18:05	33.5	29.8	33.5	79	27.7	4	9	270	0.00	29.779 
18:10	33.4	29.7	33.4	79	27.6	4	9	270	0.00	29.779 
18:15	33.4	33.4	33.4	79	27.6	2	10	248	0.00	29.782 
18:20	33.4	29.7	33.4	79	27.6	4	9	248	0.00	29.782 
18:25	33.4	33.4	33.4	79	27.6	3	9	248	0.00	29.782 
18:30	33.2	29.5	33.2	78	27.1	4	7	270	0.00	29.784 
18:35	33.2	33.2	33.2	77	26.8	3	10	270	0.00	29.784 
18:40	33.1	33.1	33.1	77	26.7	3	6	270	0.00	29.784 
18:45	33.1	33.1	33.1	76	26.4	2	6	292	0.00	29.785 
18:50	32.9	32.9	32.9	75	25.9	3	7	270	0.00	29.785 
18:55	32.8	32.8	32.8	75	25.8	3	7	248	0.00	29.785 
19:00	32.7	27.9	32.7	75	25.7	5	11	270	0.00	29.804 
19:05	32.5	28.7	32.5	76	25.8	4	12	248	0.00	29.804 
19:10	32.5	32.5	32.5	77	26.1	2	6	248	0.00	29.804 
19:15	32.4	32.4	32.4	77	26.0	3	11	270	0.00	29.799 
19:20	32.2	28.3	32.2	78	26.1	4	11	270	0.00	29.799 
19:25	32.1	28.2	32.1	78	26.0	4	9	270	0.00	29.799 
19:30	32.1	28.2	32.1	78	26.0	4	6	270	0.00	29.815 
19:35	31.9	31.9	31.9	78	25.8	3	6	270	0.00	29.815 
19:40	32.1	32.1	32.1	78	26.0	2	4	270	0.00	29.815 
19:45	32.1	32.1	32.1	77	25.7	3	9	248	0.00	29.822 
19:50	32.1	32.1	32.1	77	25.7	2	4	248	0.00	29.822 
19:55	32.2	32.2	32.2	77	25.8	2	7	248	0.00	29.822 
20:00	32.2	28.3	32.2	77	25.8	4	11	248	0.00	29.824 
20:05	32.1	28.2	32.1	77	25.7	4	10	270	0.00	29.824 
20:10	31.9	28.0	31.9	77	25.5	4	12	270	0.00	29.824 
20:15	31.8	27.8	31.8	78	25.7	4	9	270	0.00	29.819 
20:20	31.5	31.5	31.5	80	26.1	3	10	270	0.00	29.819 
20:25	31.5	31.5	31.5	81	26.4	3	10	248	0.00	29.819 
20:30	31.3	27.3	31.3	81	26.2	4	7	270	0.00	29.818 
20:35	31.2	31.2	31.2	82	26.4	2	8	248	0.00	29.818 
20:40	31.2	31.2	31.2	82	26.4	3	7	270	0.00	29.818 
20:45	31.2	31.2	31.2	81	26.1	3	7	248	0.00	29.816 
20:50	31.2	31.2	31.2	81	26.1	2	7	248	0.00	29.816 
20:55	31.2	31.2	31.2	81	26.1	3	7	292	0.00	29.816 
21:00	31.2	31.2	31.2	81	26.1	3	7	248	0.00	29.817 
21:05	31.2	31.2	31.2	81	26.1	3	7	248	0.00	29.817 
21:10	31.0	31.0	31.0	81	25.9	3	7	248	0.00	29.817 
21:15	31.0	26.9	31.0	81	25.9	4	9	248	0.00	29.820 
21:20	31.0	26.9	31.0	81	25.9	4	8	248	0.00	29.820 
21:25	30.9	30.9	30.9	82	26.1	3	9	248	0.00	29.820 
21:30	30.9	30.9	30.9	82	26.1	3	9	270	0.00	29.823 
21:35	30.7	30.7	30.7	81	25.6	3	6	270	0.00	29.823 
21:40	30.7	26.6	30.7	80	25.3	4	7	270	0.00	29.823 
21:45	30.7	30.7	30.7	80	25.3	3	6	270	0.00	29.819 
21:50	30.7	26.6	30.7	80	25.3	4	12	270	0.00	29.819 
21:55	30.7	30.7	30.7	80	25.3	3	11	248	0.00	29.819 
22:00	30.7	30.7	30.7	80	25.3	3	10	225	0.00	29.818 
22:05	30.7	30.7	30.7	80	25.3	3	10	248	0.00	29.818 
22:10	30.6	26.5	30.6	80	25.2	4	10	248	0.00	29.818 
22:15	30.6	30.6	30.6	80	25.2	3	9	270	0.00	29.818 
22:20	30.4	30.4	30.4	80	25.0	3	7	248	0.00	29.818 
22:25	30.4	30.4	30.4	80	25.0	3	10	248	0.00	29.818 
22:30	30.4	30.4	30.4	79	24.7	3	6	270	0.00	29.817 
22:35	30.3	26.1	30.3	78	24.3	4	11	248	0.00	29.817 
22:40	30.3	26.1	30.3	77	24.0	4	11	248	0.00	29.817 
22:45	30.4	30.4	30.4	77	24.1	2	5	248	0.00	29.818 
22:50	30.4	30.4	30.4	77	24.1	2	6	248	0.00	29.818 
22:55	30.4	30.4	30.4	76	23.8	3	10	248	0.00	29.818 
23:00	30.4	30.4	30.4	76	23.8	2	5	248	0.00	29.816 
23:05	30.4	26.2	30.4	76	23.8	4	10	270	0.00	29.816 
23:10	30.3	26.1	30.3	76	23.7	4	12	248	0.00	29.816 
23:15	30.3	25.1	30.3	76	23.7	5	12	270	0.00	29.816 
23:20	30.3	30.3	30.3	76	23.7	3	9	270	0.00	29.816 
23:25	30.3	30.3	30.3	76	23.7	3	7	248	0.00	29.816 
23:30	30.3	30.3	30.3	77	24.0	3	7	270	0.00	29.817 
23:35	30.3	26.1	30.3	76	23.7	4	9	248	0.00	29.817 
23:40	30.1	24.8	30.1	75	23.2	5	11	248	0.00	29.817 
23:45	30.1	25.9	30.1	75	23.2	4	12	270	0.00	29.817 
23:50	30.1	25.9	30.1	75	23.2	4	8	270	0.00	29.817 
23:55	30.1	30.1	30.1	75	23.2	3	9	270	0.00	29.817 

CoCoRaHS
IN-AL-39
A2 Web Hosting
Creative Commons License
GoDaddy
search engine by freefind advanced

loaded 2018-11-12 14:44:23 • last modified 2010-11-18 10:43:29
Privacy PolicyDisclaimer
• wx.awcolley.com is powered by PmWiki v.2002016 •
• all content (unless otherwise noted) © 2018 A W Colley